Elsmere, New York
Current Conditions -  °F | °C
As of 2:51 AM on Sunday 26 Oct 2014 (Local Time) from KALB Reporting Station
Overcast Overcast  
Wind Chill:   Ceiling: 11000
Heat Index:   Visibility: 10mi
Dew Point:   Wind: 9mph
Humidity: 83%   Direction: 230°SW
Pressure: 29.51"   Gusts: NA
Location:  42.6018°N, 73.8686°W
Report Text: KALB 260651Z 23008KT 10SM FEW035 SCT047 BKN110 OVC130 09/07 A2951 RMK AO2 RAB0558E38GSB05E07 TSE38 SLP994 P0012 T00940067 $
Loading
Personal Weather Stations






























Interactive Weather Map
Tropical Storm Tracking
New forecast layout! Learn more

10-Day Weather Forecast

Advertisements
Track Severe Weather on mobile